sensor_id;sensor_type;location;lat;lon;timestamp;P1;durP1;ratioP1;P2;durP2;ratioP2
55069;SDS011;40967;52.070;8.596;2022-09-06T00:00:31;1.02;;;0.82;;
55069;SDS011;40967;52.070;8.596;2022-09-06T00:02:58;1.33;;;1.00;;
55069;SDS011;40967;52.070;8.596;2022-09-06T00:05:25;1.23;;;0.83;;
55069;SDS011;40967;52.070;8.596;2022-09-06T00:07:51;1.00;;;0.80;;
55069;SDS011;40967;52.070;8.596;2022-09-06T00:10:16;1.07;;;0.80;;
55069;SDS011;40967;52.070;8.596;2022-09-06T00:12:42;0.83;;;0.70;;
55069;SDS011;40967;52.070;8.596;2022-09-06T00:15:07;1.13;;;0.80;;
55069;SDS011;40967;52.070;8.596;2022-09-06T00:17:33;1.10;;;0.80;;
55069;SDS011;40967;52.070;8.596;2022-09-06T00:19:58;1.08;;;0.80;;
55069;SDS011;40967;52.070;8.596;2022-09-06T00:22:24;1.08;;;0.80;;
55069;SDS011;40967;52.070;8.596;2022-09-06T00:24:49;1.37;;;0.90;;
55069;SDS011;40967;52.070;8.596;2022-09-06T00:27:15;1.55;;;1.00;;
55069;SDS011;40967;52.070;8.596;2022-09-06T00:29:40;1.15;;;0.85;;
55069;SDS011;40967;52.070;8.596;2022-09-06T00:32:05;1.15;;;0.80;;
55069;SDS011;40967;52.070;8.596;2022-09-06T00:34:32;1.30;;;1.00;;
55069;SDS011;40967;52.070;8.596;2022-09-06T00:36:58;1.40;;;0.90;;
55069;SDS011;40967;52.070;8.596;2022-09-06T00:39:23;1.17;;;0.87;;
55069;SDS011;40967;52.070;8.596;2022-09-06T00:41:48;1.33;;;1.03;;
55069;SDS011;40967;52.070;8.596;2022-09-06T00:44:14;1.33;;;0.93;;
55069;SDS011;40967;52.070;8.596;2022-09-06T00:46:40;1.20;;;0.90;;
55069;SDS011;40967;52.070;8.596;2022-09-06T00:49:14;1.83;;;1.20;;
55069;SDS011;40967;52.070;8.596;2022-09-06T00:51:49;0.88;;;0.80;;
55069;SDS011;40967;52.070;8.596;2022-09-06T00:54:16;1.00;;;0.85;;
55069;SDS011;40967;52.070;8.596;2022-09-06T00:56:42;1.10;;;0.83;;
55069;SDS011;40967;52.070;8.596;2022-09-06T00:59:08;1.52;;;1.08;;
55069;SDS011;40967;52.070;8.596;2022-09-06T01:01:34;1.50;;;1.10;;
55069;SDS011;40967;52.070;8.596;2022-09-06T01:03:59;1.40;;;1.03;;
55069;SDS011;40967;52.070;8.596;2022-09-06T01:06:29;1.20;;;0.98;;
55069;SDS011;40967;52.070;8.596;2022-09-06T01:09:24;1.30;;;1.00;;
55069;SDS011;40967;52.070;8.596;2022-09-06T01:15:12;1.50;;;1.17;;
55069;SDS011;40967;52.070;8.596;2022-09-06T01:17:40;1.35;;;1.10;;
55069;SDS011;40967;52.070;8.596;2022-09-06T01:28:33;1.33;;;0.93;;
55069;SDS011;40967;52.070;8.596;2022-09-06T01:36:35;1.27;;;1.00;;
55069;SDS011;40967;52.070;8.596;2022-09-06T01:39:08;1.42;;;1.00;;
55069;SDS011;40967;52.070;8.596;2022-09-06T01:41:42;1.60;;;1.20;;
55069;SDS011;40967;52.070;8.596;2022-09-06T01:44:07;1.40;;;1.00;;
55069;SDS011;40967;52.070;8.596;2022-09-06T01:46:34;1.57;;;1.10;;
55069;SDS011;40967;52.070;8.596;2022-09-06T01:52:20;1.35;;;0.95;;
55069;SDS011;40967;52.070;8.596;2022-09-06T02:00:16;2.05;;;1.27;;
55069;SDS011;40967;52.070;8.596;2022-09-06T02:08:08;2.10;;;1.40;;
55069;SDS011;40967;52.070;8.596;2022-09-06T02:13:13;2.50;;;1.63;;
55069;SDS011;40967;52.070;8.596;2022-09-06T02:15:42;2.33;;;1.40;;
55069;SDS011;40967;52.070;8.596;2022-09-06T02:18:13;2.45;;;1.50;;
55069;SDS011;40967;52.070;8.596;2022-09-06T02:20:50;2.20;;;1.40;;
55069;SDS011;40967;52.070;8.596;2022-09-06T02:23:19;2.28;;;1.67;;
55069;SDS011;40967;52.070;8.596;2022-09-06T02:25:50;2.00;;;1.43;;
55069;SDS011;40967;52.070;8.596;2022-09-06T02:28:23;2.00;;;1.30;;
55069;SDS011;40967;52.070;8.596;2022-09-06T02:30:49;1.58;;;1.10;;
55069;SDS011;40967;52.070;8.596;2022-09-06T02:33:23;1.30;;;0.98;;
55069;SDS011;40967;52.070;8.596;2022-09-06T02:35:52;1.45;;;1.10;;
55069;SDS011;40967;52.070;8.596;2022-09-06T02:38:23;1.58;;;1.10;;
55069;SDS011;40967;52.070;8.596;2022-09-06T02:40:50;1.40;;;1.03;;
55069;SDS011;40967;52.070;8.596;2022-09-06T02:43:18;1.20;;;0.90;;
55069;SDS011;40967;52.070;8.596;2022-09-06T02:45:44;2.00;;;1.20;;
55069;SDS011;40967;52.070;8.596;2022-09-06T02:48:09;1.73;;;1.10;;
55069;SDS011;40967;52.070;8.596;2022-09-06T02:50:34;1.43;;;1.10;;
55069;SDS011;40967;52.070;8.596;2022-09-06T02:53:01;1.35;;;1.02;;
55069;SDS011;40967;52.070;8.596;2022-09-06T02:55:28;1.55;;;1.10;;
55069;SDS011;40967;52.070;8.596;2022-09-06T02:57:54;1.20;;;0.90;;
55069;SDS011;40967;52.070;8.596;2022-09-06T03:00:19;1.47;;;1.00;;
55069;SDS011;40967;52.070;8.596;2022-09-06T03:02:44;1.20;;;0.80;;
55069;SDS011;40967;52.070;8.596;2022-09-06T03:05:10;1.17;;;0.87;;
55069;SDS011;40967;52.070;8.596;2022-09-06T03:07:35;0.87;;;0.70;;
55069;SDS011;40967;52.070;8.596;2022-09-06T03:10:00;1.10;;;0.80;;
55069;SDS011;40967;52.070;8.596;2022-09-06T03:12:26;1.52;;;1.00;;
55069;SDS011;40967;52.070;8.596;2022-09-06T03:14:52;1.23;;;0.93;;
55069;SDS011;40967;52.070;8.596;2022-09-06T03:17:17;1.35;;;1.00;;
55069;SDS011;40967;52.070;8.596;2022-09-06T03:19:42;1.02;;;0.82;;
55069;SDS011;40967;52.070;8.596;2022-09-06T03:22:08;1.50;;;1.10;;
55069;SDS011;40967;52.070;8.596;2022-09-06T03:24:33;2.15;;;1.40;;
55069;SDS011;40967;52.070;8.596;2022-09-06T03:26:58;1.85;;;1.30;;
55069;SDS011;40967;52.070;8.596;2022-09-06T03:29:24;1.70;;;1.10;;
55069;SDS011;40967;52.070;8.596;2022-09-06T03:31:49;1.60;;;1.23;;
55069;SDS011;40967;52.070;8.596;2022-09-06T03:34:14;2.03;;;1.20;;
55069;SDS011;40967;52.070;8.596;2022-09-06T03:36:40;1.47;;;1.07;;
55069;SDS011;40967;52.070;8.596;2022-09-06T03:39:05;1.33;;;1.00;;
55069;SDS011;40967;52.070;8.596;2022-09-06T03:41:31;1.45;;;1.00;;
55069;SDS011;40967;52.070;8.596;2022-09-06T03:43:57;1.40;;;1.00;;
55069;SDS011;40967;52.070;8.596;2022-09-06T03:46:22;1.27;;;0.90;;
55069;SDS011;40967;52.070;8.596;2022-09-06T03:48:47;1.70;;;1.10;;
55069;SDS011;40967;52.070;8.596;2022-09-06T03:51:13;1.30;;;0.90;;
55069;SDS011;40967;52.070;8.596;2022-09-06T03:53:39;1.20;;;0.90;;
55069;SDS011;40967;52.070;8.596;2022-09-06T03:56:05;1.30;;;0.93;;
55069;SDS011;40967;52.070;8.596;2022-09-06T03:58:31;1.75;;;1.15;;
55069;SDS011;40967;52.070;8.596;2022-09-06T04:01:00;1.48;;;1.00;;
55069;SDS011;40967;52.070;8.596;2022-09-06T04:03:28;1.60;;;0.90;;
55069;SDS011;40967;52.070;8.596;2022-09-06T04:05:54;1.90;;;1.00;;
55069;SDS011;40967;52.070;8.596;2022-09-06T04:08:19;1.55;;;1.13;;
55069;SDS011;40967;52.070;8.596;2022-09-06T04:10:47;1.90;;;1.10;;
55069;SDS011;40967;52.070;8.596;2022-09-06T04:13:14;1.27;;;0.90;;
55069;SDS011;40967;52.070;8.596;2022-09-06T04:15:40;1.40;;;0.90;;
55069;SDS011;40967;52.070;8.596;2022-09-06T04:18:09;1.50;;;1.00;;
55069;SDS011;40967;52.070;8.596;2022-09-06T04:20:35;1.50;;;1.10;;
55069;SDS011;40967;52.070;8.596;2022-09-06T04:23:00;1.63;;;1.20;;
55069;SDS011;40967;52.070;8.596;2022-09-06T04:25:25;1.60;;;1.20;;
55069;SDS011;40967;52.070;8.596;2022-09-06T04:27:51;1.57;;;1.20;;
55069;SDS011;40967;52.070;8.596;2022-09-06T04:30:16;1.53;;;1.10;;
55069;SDS011;40967;52.070;8.596;2022-09-06T04:32:42;1.67;;;1.17;;
55069;SDS011;40967;52.070;8.596;2022-09-06T04:35:07;1.60;;;1.13;;
55069;SDS011;40967;52.070;8.596;2022-09-06T04:37:33;1.73;;;1.23;;
55069;SDS011;40967;52.070;8.596;2022-09-06T04:39:58;1.93;;;1.27;;
55069;SDS011;40967;52.070;8.596;2022-09-06T04:42:23;1.90;;;1.17;;
55069;SDS011;40967;52.070;8.596;2022-09-06T04:44:49;2.93;;;1.53;;
55069;SDS011;40967;52.070;8.596;2022-09-06T04:47:14;2.33;;;1.60;;
55069;SDS011;40967;52.070;8.596;2022-09-06T04:49:42;2.58;;;1.50;;
55069;SDS011;40967;52.070;8.596;2022-09-06T04:52:08;3.65;;;2.45;;
55069;SDS011;40967;52.070;8.596;2022-09-06T04:54:34;5.68;;;3.80;;
55069;SDS011;40967;52.070;8.596;2022-09-06T04:56:59;4.33;;;3.13;;
55069;SDS011;40967;52.070;8.596;2022-09-06T04:59:25;3.30;;;2.40;;
55069;SDS011;40967;52.070;8.596;2022-09-06T05:01:50;3.23;;;2.03;;
55069;SDS011;40967;52.070;8.596;2022-09-06T05:04:15;2.40;;;1.70;;
55069;SDS011;40967;52.070;8.596;2022-09-06T05:06:41;1.57;;;1.20;;
55069;SDS011;40967;52.070;8.596;2022-09-06T05:09:07;1.50;;;1.10;;
55069;SDS011;40967;52.070;8.596;2022-09-06T05:11:32;1.60;;;1.20;;
55069;SDS011;40967;52.070;8.596;2022-09-06T05:13:58;1.90;;;1.10;;
55069;SDS011;40967;52.070;8.596;2022-09-06T05:16:23;1.40;;;1.00;;
55069;SDS011;40967;52.070;8.596;2022-09-06T05:18:49;1.80;;;1.25;;
55069;SDS011;40967;52.070;8.596;2022-09-06T05:21:14;1.10;;;0.90;;
55069;SDS011;40967;52.070;8.596;2022-09-06T05:23:40;1.20;;;0.90;;
55069;SDS011;40967;52.070;8.596;2022-09-06T05:26:05;1.50;;;1.10;;
55069;SDS011;40967;52.070;8.596;2022-09-06T05:28:31;0.90;;;0.70;;
55069;SDS011;40967;52.070;8.596;2022-09-06T05:31:06;1.30;;;0.90;;
55069;SDS011;40967;52.070;8.596;2022-09-06T05:33:33;1.10;;;0.80;;
55069;SDS011;40967;52.070;8.596;2022-09-06T05:35:58;1.10;;;0.80;;
55069;SDS011;40967;52.070;8.596;2022-09-06T05:38:24;1.10;;;0.90;;
55069;SDS011;40967;52.070;8.596;2022-09-06T05:40:49;0.90;;;0.65;;
55069;SDS011;40967;52.070;8.596;2022-09-06T05:43:15;1.25;;;0.85;;
55069;SDS011;40967;52.070;8.596;2022-09-06T05:45:40;1.10;;;0.90;;
55069;SDS011;40967;52.070;8.596;2022-09-06T05:48:06;1.43;;;0.90;;
55069;SDS011;40967;52.070;8.596;2022-09-06T05:50:32;1.00;;;0.73;;
55069;SDS011;40967;52.070;8.596;2022-09-06T05:52:58;1.03;;;0.80;;
55069;SDS011;40967;52.070;8.596;2022-09-06T05:55:23;0.90;;;0.70;;
55069;SDS011;40967;52.070;8.596;2022-09-06T05:57:49;1.37;;;1.00;;
55069;SDS011;40967;52.070;8.596;2022-09-06T06:00:14;1.30;;;0.90;;
55069;SDS011;40967;52.070;8.596;2022-09-06T06:02:39;1.33;;;0.90;;
55069;SDS011;40967;52.070;8.596;2022-09-06T06:05:05;1.07;;;0.80;;
55069;SDS011;40967;52.070;8.596;2022-09-06T06:07:31;1.30;;;0.90;;
55069;SDS011;40967;52.070;8.596;2022-09-06T06:09:57;1.17;;;0.90;;
55069;SDS011;40967;52.070;8.596;2022-09-06T06:12:22;0.87;;;0.70;;
55069;SDS011;40967;52.070;8.596;2022-09-06T06:14:47;1.37;;;0.93;;
55069;SDS011;40967;52.070;8.596;2022-09-06T06:17:13;1.30;;;0.90;;
55069;SDS011;40967;52.070;8.596;2022-09-06T06:19:38;1.50;;;1.10;;
55069;SDS011;40967;52.070;8.596;2022-09-06T06:22:04;1.50;;;1.00;;
55069;SDS011;40967;52.070;8.596;2022-09-06T06:24:29;1.23;;;0.90;;
55069;SDS011;40967;52.070;8.596;2022-09-06T06:26:55;1.47;;;1.00;;
55069;SDS011;40967;52.070;8.596;2022-09-06T06:29:20;1.42;;;1.10;;
55069;SDS011;40967;52.070;8.596;2022-09-06T06:31:45;1.52;;;1.20;;
55069;SDS011;40967;52.070;8.596;2022-09-06T06:34:11;1.55;;;0.95;;
55069;SDS011;40967;52.070;8.596;2022-09-06T06:36:36;1.23;;;1.00;;
55069;SDS011;40967;52.070;8.596;2022-09-06T06:39:03;1.52;;;1.15;;
55069;SDS011;40967;52.070;8.596;2022-09-06T06:41:30;1.05;;;0.90;;
55069;SDS011;40967;52.070;8.596;2022-09-06T06:44:00;1.30;;;0.90;;
55069;SDS011;40967;52.070;8.596;2022-09-06T06:46:28;0.90;;;0.80;;
55069;SDS011;40967;52.070;8.596;2022-09-06T06:48:58;1.10;;;0.80;;
55069;SDS011;40967;52.070;8.596;2022-09-06T06:51:25;1.13;;;0.80;;
55069;SDS011;40967;52.070;8.596;2022-09-06T06:53:52;0.98;;;0.77;;
55069;SDS011;40967;52.070;8.596;2022-09-06T06:58:49;0.93;;;0.80;;
55069;SDS011;40967;52.070;8.596;2022-09-06T07:01:16;0.90;;;0.70;;
55069;SDS011;40967;52.070;8.596;2022-09-06T07:03:44;0.73;;;0.65;;
55069;SDS011;40967;52.070;8.596;2022-09-06T07:06:10;1.23;;;0.80;;
55069;SDS011;40967;52.070;8.596;2022-09-06T07:08:36;1.00;;;0.73;;
55069;SDS011;40967;52.070;8.596;2022-09-06T07:11:02;1.17;;;0.88;;
55069;SDS011;40967;52.070;8.596;2022-09-06T07:13:29;1.20;;;0.93;;
55069;SDS011;40967;52.070;8.596;2022-09-06T07:16:11;1.48;;;1.10;;
55069;SDS011;40967;52.070;8.596;2022-09-06T07:18:39;1.40;;;1.00;;
55069;SDS011;40967;52.070;8.596;2022-09-06T07:21:15;1.35;;;1.10;;
55069;SDS011;40967;52.070;8.596;2022-09-06T07:23:42;1.33;;;0.90;;
55069;SDS011;40967;52.070;8.596;2022-09-06T07:26:15;1.30;;;0.90;;
55069;SDS011;40967;52.070;8.596;2022-09-06T07:28:41;1.35;;;0.98;;
55069;SDS011;40967;52.070;8.596;2022-09-06T07:31:07;1.23;;;0.87;;
55069;SDS011;40967;52.070;8.596;2022-09-06T07:33:35;1.13;;;0.90;;
55069;SDS011;40967;52.070;8.596;2022-09-06T07:36:03;1.15;;;0.90;;
55069;SDS011;40967;52.070;8.596;2022-09-06T07:38:29;1.10;;;0.82;;
55069;SDS011;40967;52.070;8.596;2022-09-06T07:40:56;0.90;;;0.73;;
55069;SDS011;40967;52.070;8.596;2022-09-06T07:43:24;1.52;;;0.90;;
55069;SDS011;40967;52.070;8.596;2022-09-06T07:45:57;1.20;;;0.90;;
55069;SDS011;40967;52.070;8.596;2022-09-06T07:48:32;1.40;;;1.02;;
55069;SDS011;40967;52.070;8.596;2022-09-06T07:51:08;1.75;;;1.20;;
55069;SDS011;40967;52.070;8.596;2022-09-06T07:53:37;1.70;;;1.20;;
55069;SDS011;40967;52.070;8.596;2022-09-06T07:56:05;1.45;;;1.08;;
55069;SDS011;40967;52.070;8.596;2022-09-06T07:58:33;1.20;;;0.90;;
55069;SDS011;40967;52.070;8.596;2022-09-06T08:03:57;1.45;;;1.02;;
55069;SDS011;40967;52.070;8.596;2022-09-06T08:06:24;1.20;;;1.00;;
55069;SDS011;40967;52.070;8.596;2022-09-06T08:08:51;1.85;;;1.23;;
55069;SDS011;40967;52.070;8.596;2022-09-06T08:11:18;2.03;;;1.47;;
55069;SDS011;40967;52.070;8.596;2022-09-06T08:13:46;2.15;;;1.55;;
55069;SDS011;40967;52.070;8.596;2022-09-06T08:16:13;1.90;;;1.42;;
55069;SDS011;40967;52.070;8.596;2022-09-06T08:18:40;2.50;;;1.65;;
55069;SDS011;40967;52.070;8.596;2022-09-06T08:21:10;2.13;;;1.53;;
55069;SDS011;40967;52.070;8.596;2022-09-06T08:23:40;2.40;;;1.60;;
55069;SDS011;40967;52.070;8.596;2022-09-06T08:26:12;1.90;;;1.33;;
55069;SDS011;40967;52.070;8.596;2022-09-06T08:28:37;2.43;;;1.63;;
55069;SDS011;40967;52.070;8.596;2022-09-06T08:33:32;2.38;;;1.52;;
55069;SDS011;40967;52.070;8.596;2022-09-06T08:35:58;1.90;;;1.30;;
55069;SDS011;40967;52.070;8.596;2022-09-06T08:38:24;1.75;;;1.13;;
55069;SDS011;40967;52.070;8.596;2022-09-06T08:40:50;1.70;;;1.27;;
55069;SDS011;40967;52.070;8.596;2022-09-06T08:43:18;1.40;;;1.10;;
55069;SDS011;40967;52.070;8.596;2022-09-06T08:45:46;2.70;;;1.50;;
55069;SDS011;40967;52.070;8.596;2022-09-06T08:48:14;2.20;;;1.50;;
55069;SDS011;40967;52.070;8.596;2022-09-06T08:50:40;2.77;;;1.43;;
55069;SDS011;40967;52.070;8.596;2022-09-06T08:53:15;1.93;;;1.33;;
55069;SDS011;40967;52.070;8.596;2022-09-06T08:55:58;1.77;;;1.30;;
55069;SDS011;40967;52.070;8.596;2022-09-06T08:58:52;2.40;;;1.60;;
55069;SDS011;40967;52.070;8.596;2022-09-06T09:01:47;2.60;;;1.90;;
55069;SDS011;40967;52.070;8.596;2022-09-06T09:04:26;4.72;;;2.38;;
55069;SDS011;40967;52.070;8.596;2022-09-06T09:06:56;3.90;;;2.57;;
55069;SDS011;40967;52.070;8.596;2022-09-06T09:09:24;3.88;;;2.95;;
55069;SDS011;40967;52.070;8.596;2022-09-06T09:11:53;3.45;;;2.50;;
55069;SDS011;40967;52.070;8.596;2022-09-06T09:14:26;3.03;;;2.20;;
55069;SDS011;40967;52.070;8.596;2022-09-06T09:16:54;2.83;;;2.00;;
55069;SDS011;40967;52.070;8.596;2022-09-06T09:19:29;2.30;;;1.70;;
55069;SDS011;40967;52.070;8.596;2022-09-06T09:21:57;2.53;;;1.80;;
55069;SDS011;40967;52.070;8.596;2022-09-06T09:24:23;2.50;;;1.70;;
55069;SDS011;40967;52.070;8.596;2022-09-06T09:29:20;2.05;;;1.40;;
55069;SDS011;40967;52.070;8.596;2022-09-06T09:31:49;2.27;;;1.50;;
55069;SDS011;40967;52.070;8.596;2022-09-06T09:34:30;2.20;;;1.50;;
55069;SDS011;40967;52.070;8.596;2022-09-06T09:37:10;1.98;;;1.25;;
55069;SDS011;40967;52.070;8.596;2022-09-06T09:39:47;1.90;;;1.40;;
55069;SDS011;40967;52.070;8.596;2022-09-06T09:42:25;2.28;;;1.52;;
55069;SDS011;40967;52.070;8.596;2022-09-06T09:44:51;1.57;;;1.30;;
55069;SDS011;40967;52.070;8.596;2022-09-06T09:47:24;1.77;;;1.30;;
55069;SDS011;40967;52.070;8.596;2022-09-06T09:49:52;2.10;;;1.50;;
55069;SDS011;40967;52.070;8.596;2022-09-06T09:52:23;2.03;;;1.33;;
55069;SDS011;40967;52.070;8.596;2022-09-06T09:54:55;2.35;;;1.65;;
55069;SDS011;40967;52.070;8.596;2022-09-06T09:57:22;2.27;;;1.60;;
55069;SDS011;40967;52.070;8.596;2022-09-06T09:59:57;2.08;;;1.60;;
55069;SDS011;40967;52.070;8.596;2022-09-06T10:02:29;2.28;;;1.50;;
55069;SDS011;40967;52.070;8.596;2022-09-06T10:07:41;2.25;;;1.58;;
55069;SDS011;40967;52.070;8.596;2022-09-06T10:10:14;2.10;;;1.42;;
55069;SDS011;40967;52.070;8.596;2022-09-06T10:12:46;2.33;;;1.50;;
55069;SDS011;40967;52.070;8.596;2022-09-06T10:15:30;2.40;;;1.47;;
55069;SDS011;40967;52.070;8.596;2022-09-06T10:17:57;1.93;;;1.43;;
55069;SDS011;40967;52.070;8.596;2022-09-06T10:20:30;2.23;;;1.47;;
55069;SDS011;40967;52.070;8.596;2022-09-06T10:25:36;2.80;;;1.30;;
55069;SDS011;40967;52.070;8.596;2022-09-06T10:36:20;1.63;;;1.25;;
55069;SDS011;40967;52.070;8.596;2022-09-06T10:38:55;2.00;;;1.45;;
55069;SDS011;40967;52.070;8.596;2022-09-06T10:41:28;1.55;;;1.23;;
55069;SDS011;40967;52.070;8.596;2022-09-06T10:46:52;1.50;;;1.13;;
55069;SDS011;40967;52.070;8.596;2022-09-06T10:49:28;1.23;;;0.90;;
55069;SDS011;40967;52.070;8.596;2022-09-06T10:51:59;1.67;;;1.10;;
55069;SDS011;40967;52.070;8.596;2022-09-06T10:54:27;2.22;;;1.52;;
55069;SDS011;40967;52.070;8.596;2022-09-06T11:05:10;2.00;;;1.45;;
55069;SDS011;40967;52.070;8.596;2022-09-06T11:07:40;1.50;;;1.20;;
55069;SDS011;40967;52.070;8.596;2022-09-06T11:10:16;2.28;;;1.58;;
55069;SDS011;40967;52.070;8.596;2022-09-06T11:15:41;1.70;;;1.10;;
55069;SDS011;40967;52.070;8.596;2022-09-06T11:26:42;1.15;;;1.00;;
55069;SDS011;40967;52.070;8.596;2022-09-06T11:29:19;2.00;;;1.23;;
55069;SDS011;40967;52.070;8.596;2022-09-06T11:31:55;2.08;;;1.38;;
55069;SDS011;40967;52.070;8.596;2022-09-06T11:34:28;1.35;;;1.05;;
55069;SDS011;40967;52.070;8.596;2022-09-06T11:36:57;1.08;;;0.93;;
55069;SDS011;40967;52.070;8.596;2022-09-06T11:42:01;1.13;;;0.90;;
55069;SDS011;40967;52.070;8.596;2022-09-06T11:55:19;1.70;;;1.13;;
55069;SDS011;40967;52.070;8.596;2022-09-06T11:57:52;1.70;;;1.23;;
55069;SDS011;40967;52.070;8.596;2022-09-06T12:00:20;1.70;;;1.20;;
55069;SDS011;40967;52.070;8.596;2022-09-06T12:02:48;1.33;;;0.88;;
55069;SDS011;40967;52.070;8.596;2022-09-06T12:10:44;1.67;;;1.10;;
55069;SDS011;40967;52.070;8.596;2022-09-06T12:13:32;1.25;;;1.00;;
55069;SDS011;40967;52.070;8.596;2022-09-06T12:16:04;1.40;;;1.00;;
55069;SDS011;40967;52.070;8.596;2022-09-06T12:21:08;0.93;;;0.82;;
55069;SDS011;40967;52.070;8.596;2022-09-06T12:23:53;1.05;;;0.80;;
55069;SDS011;40967;52.070;8.596;2022-09-06T12:26:42;1.30;;;0.70;;
55069;SDS011;40967;52.070;8.596;2022-09-06T12:29:16;0.60;;;0.60;;
55069;SDS011;40967;52.070;8.596;2022-09-06T12:31:54;0.80;;;0.70;;
55069;SDS011;40967;52.070;8.596;2022-09-06T12:34:23;0.70;;;0.70;;
55069;SDS011;40967;52.070;8.596;2022-09-06T12:39:24;0.95;;;0.73;;
55069;SDS011;40967;52.070;8.596;2022-09-06T12:44:40;1.13;;;0.90;;
55069;SDS011;40967;52.070;8.596;2022-09-06T12:47:11;1.40;;;1.10;;
55069;SDS011;40967;52.070;8.596;2022-09-06T12:49:41;1.20;;;0.90;;
55069;SDS011;40967;52.070;8.596;2022-09-06T12:52:08;1.20;;;1.00;;
55069;SDS011;40967;52.070;8.596;2022-09-06T12:54:46;1.63;;;1.13;;
55069;SDS011;40967;52.070;8.596;2022-09-06T12:57:16;1.00;;;0.80;;
55069;SDS011;40967;52.070;8.596;2022-09-06T12:59:46;0.80;;;0.80;;
55069;SDS011;40967;52.070;8.596;2022-09-06T13:02:20;0.80;;;0.70;;
55069;SDS011;40967;52.070;8.596;2022-09-06T13:05:02;0.60;;;0.60;;
55069;SDS011;40967;52.070;8.596;2022-09-06T13:07:30;0.80;;;0.60;;
55069;SDS011;40967;52.070;8.596;2022-09-06T13:09:59;0.88;;;0.80;;
55069;SDS011;40967;52.070;8.596;2022-09-06T13:12:33;1.10;;;0.95;;
55069;SDS011;40967;52.070;8.596;2022-09-06T13:15:10;1.00;;;0.90;;
55069;SDS011;40967;52.070;8.596;2022-09-06T13:17:43;2.58;;;1.20;;
55069;SDS011;40967;52.070;8.596;2022-09-06T13:20:28;1.20;;;1.10;;
55069;SDS011;40967;52.070;8.596;2022-09-06T13:23:04;1.70;;;1.10;;
55069;SDS011;40967;52.070;8.596;2022-09-06T13:25:30;1.30;;;1.08;;
55069;SDS011;40967;52.070;8.596;2022-09-06T13:27:56;1.40;;;1.00;;
55069;SDS011;40967;52.070;8.596;2022-09-06T13:30:38;0.95;;;0.80;;
55069;SDS011;40967;52.070;8.596;2022-09-06T13:33:06;1.48;;;1.02;;
55069;SDS011;40967;52.070;8.596;2022-09-06T13:35:42;1.80;;;1.10;;
55069;SDS011;40967;52.070;8.596;2022-09-06T13:38:20;1.03;;;0.90;;
55069;SDS011;40967;52.070;8.596;2022-09-06T13:41:31;1.27;;;1.00;;
55069;SDS011;40967;52.070;8.596;2022-09-06T13:43:59;1.15;;;0.90;;
55069;SDS011;40967;52.070;8.596;2022-09-06T13:46:40;1.52;;;1.17;;
55069;SDS011;40967;52.070;8.596;2022-09-06T13:49:06;1.95;;;1.40;;
55069;SDS011;40967;52.070;8.596;2022-09-06T13:51:32;1.42;;;1.20;;
55069;SDS011;40967;52.070;8.596;2022-09-06T13:54:08;1.02;;;0.80;;
55069;SDS011;40967;52.070;8.596;2022-09-06T13:56:36;1.45;;;1.25;;
55069;SDS011;40967;52.070;8.596;2022-09-06T13:59:02;1.70;;;1.20;;
55069;SDS011;40967;52.070;8.596;2022-09-06T14:01:28;1.50;;;1.00;;
55069;SDS011;40967;52.070;8.596;2022-09-06T14:03:53;1.85;;;1.30;;
55069;SDS011;40967;52.070;8.596;2022-09-06T14:06:19;1.80;;;1.30;;
55069;SDS011;40967;52.070;8.596;2022-09-06T14:08:44;1.33;;;1.13;;
55069;SDS011;40967;52.070;8.596;2022-09-06T14:11:10;1.50;;;1.10;;
55069;SDS011;40967;52.070;8.596;2022-09-06T14:13:37;1.35;;;1.10;;
55069;SDS011;40967;52.070;8.596;2022-09-06T14:16:02;2.07;;;1.20;;
55069;SDS011;40967;52.070;8.596;2022-09-06T14:18:29;1.10;;;1.00;;
55069;SDS011;40967;52.070;8.596;2022-09-06T14:20:55;1.40;;;1.10;;
55069;SDS011;40967;52.070;8.596;2022-09-06T14:23:22;1.40;;;1.30;;
55069;SDS011;40967;52.070;8.596;2022-09-06T14:25:48;1.98;;;1.27;;
55069;SDS011;40967;52.070;8.596;2022-09-06T14:28:18;1.38;;;1.10;;
55069;SDS011;40967;52.070;8.596;2022-09-06T14:30:44;1.73;;;1.17;;
55069;SDS011;40967;52.070;8.596;2022-09-06T14:33:09;1.47;;;1.00;;
55069;SDS011;40967;52.070;8.596;2022-09-06T14:35:35;1.90;;;1.30;;
55069;SDS011;40967;52.070;8.596;2022-09-06T14:38:00;2.10;;;1.30;;
55069;SDS011;40967;52.070;8.596;2022-09-06T14:40:27;1.67;;;1.20;;
55069;SDS011;40967;52.070;8.596;2022-09-06T14:42:53;1.60;;;1.27;;
55069;SDS011;40967;52.070;8.596;2022-09-06T14:45:19;1.27;;;1.08;;
55069;SDS011;40967;52.070;8.596;2022-09-06T14:47:45;1.63;;;1.10;;
55069;SDS011;40967;52.070;8.596;2022-09-06T14:50:10;1.37;;;1.10;;
55069;SDS011;40967;52.070;8.596;2022-09-06T14:52:36;1.30;;;1.00;;
55069;SDS011;40967;52.070;8.596;2022-09-06T14:55:01;1.23;;;0.93;;
55069;SDS011;40967;52.070;8.596;2022-09-06T14:57:27;1.53;;;1.20;;
55069;SDS011;40967;52.070;8.596;2022-09-06T14:59:54;1.63;;;1.10;;
55069;SDS011;40967;52.070;8.596;2022-09-06T15:02:19;1.20;;;1.10;;
55069;SDS011;40967;52.070;8.596;2022-09-06T15:04:44;1.27;;;0.97;;
55069;SDS011;40967;52.070;8.596;2022-09-06T15:07:10;1.70;;;1.20;;
55069;SDS011;40967;52.070;8.596;2022-09-06T15:09:36;1.35;;;1.08;;
55069;SDS011;40967;52.070;8.596;2022-09-06T15:12:01;1.65;;;1.20;;
55069;SDS011;40967;52.070;8.596;2022-09-06T15:14:28;2.00;;;1.30;;
55069;SDS011;40967;52.070;8.596;2022-09-06T15:16:54;1.60;;;1.13;;
55069;SDS011;40967;52.070;8.596;2022-09-06T15:19:26;1.23;;;1.00;;
55069;SDS011;40967;52.070;8.596;2022-09-06T15:21:53;2.08;;;1.08;;
55069;SDS011;40967;52.070;8.596;2022-09-06T15:24:19;2.97;;;1.70;;
55069;SDS011;40967;52.070;8.596;2022-09-06T15:26:45;1.70;;;1.37;;
55069;SDS011;40967;52.070;8.596;2022-09-06T15:29:11;1.95;;;1.33;;
55069;SDS011;40967;52.070;8.596;2022-09-06T15:31:37;1.73;;;1.30;;
55069;SDS011;40967;52.070;8.596;2022-09-06T15:34:04;1.90;;;1.27;;
55069;SDS011;40967;52.070;8.596;2022-09-06T15:36:31;1.92;;;1.40;;
55069;SDS011;40967;52.070;8.596;2022-09-06T15:39:00;1.45;;;1.10;;
55069;SDS011;40967;52.070;8.596;2022-09-06T15:41:28;1.80;;;1.30;;
55069;SDS011;40967;52.070;8.596;2022-09-06T15:43:58;1.77;;;1.40;;
55069;SDS011;40967;52.070;8.596;2022-09-06T15:49:00;2.20;;;1.40;;
55069;SDS011;40967;52.070;8.596;2022-09-06T15:51:26;2.20;;;1.52;;
55069;SDS011;40967;52.070;8.596;2022-09-06T15:53:53;1.60;;;1.30;;
55069;SDS011;40967;52.070;8.596;2022-09-06T15:56:19;1.85;;;1.10;;
55069;SDS011;40967;52.070;8.596;2022-09-06T15:58:45;1.27;;;1.00;;
55069;SDS011;40967;52.070;8.596;2022-09-06T16:01:12;1.73;;;1.25;;
55069;SDS011;40967;52.070;8.596;2022-09-06T16:03:46;1.47;;;1.20;;
55069;SDS011;40967;52.070;8.596;2022-09-06T16:06:23;1.50;;;1.17;;
55069;SDS011;40967;52.070;8.596;2022-09-06T16:08:54;1.65;;;1.15;;
55069;SDS011;40967;52.070;8.596;2022-09-06T16:11:22;1.63;;;1.15;;
55069;SDS011;40967;52.070;8.596;2022-09-06T16:13:48;1.60;;;1.07;;
55069;SDS011;40967;52.070;8.596;2022-09-06T16:16:14;1.63;;;1.20;;
55069;SDS011;40967;52.070;8.596;2022-09-06T16:18:41;1.98;;;1.30;;
55069;SDS011;40967;52.070;8.596;2022-09-06T16:21:09;1.65;;;1.30;;
55069;SDS011;40967;52.070;8.596;2022-09-06T16:23:37;2.30;;;1.40;;
55069;SDS011;40967;52.070;8.596;2022-09-06T16:26:04;1.75;;;1.40;;
55069;SDS011;40967;52.070;8.596;2022-09-06T16:28:32;2.33;;;1.40;;
55069;SDS011;40967;52.070;8.596;2022-09-06T16:30:59;1.67;;;1.30;;
55069;SDS011;40967;52.070;8.596;2022-09-06T16:33:30;2.20;;;1.70;;
55069;SDS011;40967;52.070;8.596;2022-09-06T16:35:58;1.90;;;1.50;;
55069;SDS011;40967;52.070;8.596;2022-09-06T16:38:24;1.90;;;1.20;;
55069;SDS011;40967;52.070;8.596;2022-09-06T16:40:52;1.88;;;1.30;;
55069;SDS011;40967;52.070;8.596;2022-09-06T16:43:19;1.90;;;1.40;;
55069;SDS011;40967;52.070;8.596;2022-09-06T16:45:53;2.20;;;1.40;;